Terminal Aerodrome Forecast
Issued by NWS Brownsville, TX

Home | Current Version | Previous Version | Text Only | Print | Product List | Glossary On
Versions: 1 2 3 4 5 6 7 8 9 10 11 12 13 14 15
000
FTUS44 KBRO 250500
TAFMFE
TAF
KMFE 250524Z 2506/2606 17003KT P6SM SKC
     FM251400 17010KT P6SM FEW250
     FM251700 16017G23KT P6SM SCT250
     FM252000 15022G29KT P6SM SCT250
     FM260300 15008KT P6SM BKN250=

USA.gov is the U.S. government's official web portal to all federal, state and local government web resources and services.